X  Chiuso Dati meteorologici dell'aviazione (METAR)     LIPX Verona-Villafranca Valerio Catullo Airport
Temperatura
9°C Temperatura
6°C Punto di rugiada
82% Umidità



Vento
5 KM/O
3 MPH
1 M/S
3 KTS



360°
N
Condizioni attuali

Chiaro Chiaro
Pressione 1020.92 (hPa) - 30.15 (inHg)
Visibilità 6.2 (miglio) - 10 (km)
Aeroporto
Codice-Aeroporto LIPX

Posizione: Verona-Villafranca Valerio Catullo Airport
Distanza: 0 (km)

Metar:
LIPX 230350Z 36003KT CAVOK 09/06 Q1021

Ore: 23-09-2022 05:50 CEST